Time;durP1;ratioP1;P1;durP2;ratioP2;P2;SDS_P1;SDS_P2;PMS_P1;PMS_P2;Temp;Humidity;BMP_temperature;BMP_pressure;BME280_temperature;BME280_humidity;BME280_pressure;Samples;Min_cycle;Max_cycle;Signal;HPM_P1;HPM_P2
2022/06/22 00:00:39;;;;;;;6.33;3.70;;;;;;;-143.84;41.45;44980.53;5090022;28;20803;-78
2022/06/22 00:03:11;;;;;;;9.53;3.70;;;;;;;-143.84;41.96;44967.19;5090812;28;20432;-78
2022/06/22 00:05:44;;;;;;;12.07;3.37;;;;;;;-143.84;42.56;44955.75;5089218;28;20447;-72
2022/06/22 00:08:16;;;;;;;6.00;3.33;;;;;;;-143.84;42.98;44963.38;5088849;28;20444;-72
2022/06/22 00:10:54;;;;;;;5.67;3.50;;;;;;;-143.84;43.22;44953.88;5089118;28;20540;-72
2022/06/22 00:13:25;;;;;;;7.23;3.40;;;;;;;-143.84;44.00;44957.66;5088772;28;20432;-72
2022/06/22 00:15:58;;;;;;;8.93;3.60;;;;;;;-143.84;44.52;44991.94;5088390;28;20440;-72
2022/06/22 00:18:34;;;;;;;6.00;3.97;;;;;;;-143.84;45.35;44961.47;5088636;28;21026;-72
2022/06/22 00:21:04;;;;;;;9.17;4.20;;;;;;;-143.84;46.52;44972.91;5088458;28;20457;-72
2022/06/22 00:23:37;;;;;;;7.77;4.83;;;;;;;-143.84;48.93;44961.47;5090925;28;20432;-72
2022/06/22 00:26:18;;;;;;;19.53;4.97;;;;;;;-143.84;51.07;44972.91;5091936;28;20856;-72
2022/06/22 00:28:57;;;;;;;9.70;4.27;;;;;;;-143.84;51.67;44982.41;5091676;28;20443;-72
2022/06/22 00:31:34;;;;;;;7.43;4.10;;;;;;;-143.84;52.48;44980.53;5092324;28;20517;-72
2022/06/22 00:34:14;;;;;;;5.73;4.57;;;;;;;-143.84;53.73;44980.53;5091503;28;20479;-72
2022/06/22 00:36:46;;;;;;;15.80;4.83;;;;;;;-143.84;55.03;44995.75;5091906;28;20530;-72
2022/06/22 00:39:25;;;;;;;16.33;4.87;;;;;;;-143.84;56.30;44974.81;5092258;28;20439;-72
2022/06/22 00:41:56;;;;;;;6.40;4.20;;;;;;;-143.84;57.25;44984.31;5092360;28;20450;-72
2022/06/22 00:44:27;;;;;;;10.30;4.97;;;;;;;-143.84;58.84;44980.53;5092525;28;20447;-72
2022/06/22 00:47:00;;;;;;;9.20;4.60;;;;;;;-143.84;59.81;44965.28;5092129;28;20489;-72
2022/06/22 00:49:30;;;;;;;12.53;4.87;;;;;;;-143.84;60.46;44984.31;5092135;28;20446;-72
2022/06/22 00:52:02;;;;;;;7.60;5.00;;;;;;;-143.84;61.31;44976.72;5091849;28;20865;-72
2022/06/22 00:54:33;;;;;;;12.10;5.10;;;;;;;-143.84;62.12;44995.75;5092027;28;20505;-72
2022/06/22 00:57:10;;;;;;;14.87;6.10;;;;;;;-143.84;62.75;45018.59;5091914;28;20440;-72
2022/06/22 00:59:45;;;;;;;7.03;5.20;;;;;;;-143.84;63.41;44988.13;5092108;28;20432;-72
2022/06/22 01:02:27;;;;;;;10.27;4.70;;;;;;;-143.84;64.00;45010.97;5092412;28;20526;-72
2022/06/22 01:05:03;;;;;;;6.77;5.00;;;;;;;-143.84;64.37;44972.91;5092187;28;20443;-72
2022/06/22 01:07:39;;;;;;;6.27;4.80;;;;;;;-143.84;65.37;44984.31;5091726;28;20965;-72
2022/06/22 01:10:13;;;;;;;12.03;6.47;;;;;;;-143.84;65.86;44974.81;5091621;28;20471;-72
2022/06/22 01:12:48;;;;;;;10.17;4.90;;;;;;;-143.84;66.04;44991.94;5091743;28;20443;-72
2022/06/22 01:15:25;;;;;;;5.30;4.80;;;;;;;-143.84;65.58;45012.88;5092347;28;20428;-72
2022/06/22 01:17:58;;;;;;;8.50;4.70;;;;;;;-143.84;64.79;45003.38;5091753;28;20439;-72
2022/06/22 01:20:34;;;;;;;10.83;6.00;;;;;;;-143.84;65.23;44974.81;5091768;28;20440;-72
2022/06/22 01:23:28;;;;;;;12.43;5.20;;;;;;;-143.84;65.94;44999.56;5091628;28;20455;-72
2022/06/22 01:25:58;;;;;;;7.73;4.70;;;;;;;-143.84;66.39;45018.59;5091622;28;20473;-72
2022/06/22 01:28:27;;;;;;;8.07;5.37;;;;;;;-143.84;67.66;45014.78;5091564;28;20505;-72
2022/06/22 01:31:02;;;;;;;13.30;5.90;;;;;;;-143.84;68.29;44990.03;5091758;28;20479;-72
2022/06/22 01:33:33;;;;;;;19.87;4.97;;;;;;;-143.84;66.47;44986.22;5091202;28;20490;-72
2022/06/22 01:36:03;;;;;;;14.00;5.30;;;;;;;-143.84;65.39;45018.59;5090360;28;20531;-72
2022/06/22 01:38:35;;;;;;;16.77;4.57;;;;;;;-143.84;66.26;45007.19;5091244;28;20513;-72
2022/06/22 01:41:16;;;;;;;5.10;4.70;;;;;;;-143.84;67.36;44997.66;5091189;28;20963;-72
2022/06/22 01:43:52;;;;;;;8.07;4.37;;;;;;;-143.84;67.17;44991.94;5091194;28;20443;-72
2022/06/22 01:46:23;;;;;;;6.60;5.10;;;;;;;-143.84;67.17;44986.22;5091540;28;20489;-72
2022/06/22 01:48:57;;;;;;;8.30;4.97;;;;;;;-143.84;66.98;45022.41;5091237;28;20483;-72
2022/06/22 01:51:29;;;;;;;13.23;5.20;;;;;;;-143.84;66.73;45005.28;5090941;28;21067;-72
2022/06/22 01:54:04;;;;;;;5.17;3.90;;;;;;;-143.84;66.30;45001.47;5091280;28;20869;-72
2022/06/22 01:56:39;;;;;;;5.17;4.77;;;;;;;-143.84;65.66;45016.69;5090852;28;20431;-72
2022/06/22 01:59:18;;;;;;;7.43;4.30;;;;;;;-143.84;65.55;45010.97;5091155;28;20432;-72
2022/06/22 02:01:54;;;;;;;11.53;5.37;;;;;;;-143.84;65.05;45003.38;5090888;28;20953;-72
2022/06/22 02:04:31;;;;;;;12.30;4.53;;;;;;;-143.84;65.28;45024.31;5090693;28;20501;-72
2022/06/22 02:10:14;;;;;;;5.13;3.80;;;;;;;-143.84;63.20;45001.47;5090745;28;20876;-72
2022/06/22 02:12:44;;;;;;;7.93;4.33;;;;;;;-143.84;63.00;44965.28;5093305;28;21003;-78
2022/06/22 02:15:20;;;;;;;6.33;3.97;;;;;;;-143.84;62.42;44991.94;5092905;28;20446;-78
2022/06/22 02:17:47;;;;;;;4.57;3.80;;;;;;;-143.84;62.51;45007.19;5093252;28;20440;-78
2022/06/22 02:20:36;;;;;;;9.00;3.63;;;;;;;-143.84;63.09;45018.59;5092936;28;20497;-78
2022/06/22 02:23:12;;;;;;;7.13;3.63;;;;;;;-143.84;62.88;45010.97;5086621;28;21224;-77
2022/06/22 02:25:46;;;;;;;9.90;3.50;;;;;;;-143.84;63.26;45022.41;5092410;28;20448;-77
2022/06/22 02:28:14;;;;;;;5.47;4.20;;;;;;;-143.84;63.25;45005.28;5092592;28;20435;-77
2022/06/22 02:30:44;;;;;;;8.77;4.10;;;;;;;-143.84;63.34;45010.97;5092466;28;20479;-77
2022/06/22 02:33:13;;;;;;;4.43;4.03;;;;;;;-143.84;63.16;44999.56;5092330;28;20571;-78
2022/06/22 02:35:42;;;;;;;13.83;4.47;;;;;;;-143.84;63.18;44995.75;5092066;28;20497;-77
2022/06/22 02:38:11;;;;;;;15.23;4.23;;;;;;;-143.84;63.31;45012.88;5092352;28;20424;-77
2022/06/22 02:46:17;;;;;;;7.90;3.23;;;;;;;-143.84;63.37;45024.31;5091887;28;20431;-77
2022/06/22 02:48:50;;;;;;;5.00;3.37;;;;;;;-143.84;63.05;45018.59;5091872;28;20448;-77
2022/06/22 02:51:23;;;;;;;4.70;3.40;;;;;;;-143.84;62.51;45007.19;5092099;28;20566;-77
2022/06/22 02:53:52;;;;;;;9.57;3.60;;;;;;;-143.84;61.75;44995.75;5091603;28;20447;-77
2022/06/22 02:56:23;;;;;;;5.93;3.90;;;;;;;-143.84;61.55;44999.56;5091814;28;20420;-77
2022/06/22 02:58:51;;;;;;;4.40;3.40;;;;;;;-143.84;61.14;44995.75;5092258;28;20887;-77
2022/06/22 03:01:22;;;;;;;11.23;3.60;;;;;;;-143.84;60.46;45009.09;5091454;28;20448;-77
2022/06/22 03:03:54;;;;;;;5.00;3.50;;;;;;;-143.84;60.38;45012.88;5091833;28;20482;-77
2022/06/22 03:06:24;;;;;;;3.03;2.83;;;;;;;-143.84;60.20;45016.69;5091529;28;20443;-77
2022/06/22 03:08:53;;;;;;;12.10;3.10;;;;;;;-143.84;60.06;45012.88;5091339;28;20444;-77
2022/06/22 03:11:21;;;;;;;6.00;3.40;;;;;;;-143.84;59.93;44997.66;5091346;28;21065;-77
2022/06/22 03:13:54;;;;;;;3.77;3.00;;;;;;;-143.84;59.99;45033.84;5091440;28;20500;-77
2022/06/22 03:16:28;;;;;;;6.23;3.00;;;;;;;-143.84;59.98;45007.19;5091582;28;20443;-77
2022/06/22 03:19:01;;;;;;;4.50;2.90;;;;;;;-143.84;60.22;44999.56;5091221;28;20443;-77
2022/06/22 03:24:54;;;;;;;5.03;3.10;;;;;;;-143.84;59.58;45005.28;5091216;28;20465;-77
2022/06/22 03:27:25;;;;;;;5.57;3.60;;;;;;;-143.84;59.55;45014.78;5090883;28;20451;-77
2022/06/22 03:29:56;;;;;;;5.00;3.57;;;;;;;-143.84;59.45;45007.19;5088721;28;20856;-76
2022/06/22 03:32:30;;;;;;;3.30;3.00;;;;;;;-143.84;58.84;45014.78;5091084;28;20488;-79
2022/06/22 03:35:03;;;;;;;10.37;3.03;;;;;;;-143.84;58.90;44986.22;5091536;28;20432;-78
2022/06/22 03:37:35;;;;;;;9.97;3.20;;;;;;;-143.84;58.79;45030.03;5091502;28;20428;-78
2022/06/22 03:40:09;;;;;;;8.30;3.20;;;;;;;-143.84;57.59;45005.28;5091397;28;20446;-78
2022/06/22 03:42:41;;;;;;;4.53;3.13;;;;;;;-143.84;55.31;45005.28;5090173;28;20534;-81
2022/06/22 03:45:15;;;;;;;3.40;3.10;;;;;;;-143.84;52.23;44999.56;5091850;28;20863;-83
2022/06/22 03:47:52;;;;;;;3.37;3.07;;;;;;;-143.84;50.11;45005.28;5090976;28;20464;-85
2022/06/22 03:50:27;;;;;;;6.93;2.87;;;;;;;-143.84;46.47;44951.97;5091819;28;20432;-85
2022/06/22 03:56:18;;;;;;;4.83;2.30;;;;;;;-143.84;42.93;44950.06;5091457;28;21017;-85
2022/06/22 03:58:47;;;;;;;2.50;2.30;;;;;;;-143.84;41.31;44965.28;5090903;28;20489;-85
2022/06/22 04:01:16;;;;;;;4.40;2.27;;;;;;;-143.84;40.31;44948.16;5091190;28;20501;-85
2022/06/22 04:03:45;;;;;;;11.87;2.90;;;;;;;-143.84;39.23;44942.44;5091177;28;20413;-85
2022/06/22 04:06:17;;;;;;;8.80;2.60;;;;;;;-143.84;38.93;44919.59;5091301;28;20441;-85
2022/06/22 04:08:44;;;;;;;8.30;2.30;;;;;;;-143.84;38.45;44915.78;5091318;28;20432;-85
2022/06/22 04:11:16;;;;;;;4.83;2.50;;;;;;;-143.84;37.99;44913.88;5091274;28;20463;-85
2022/06/22 04:13:47;;;;;;;4.80;2.87;;;;;;;-143.84;37.87;44923.41;5091434;28;20432;-84
2022/06/22 04:16:17;;;;;;;4.07;2.17;;;;;;;-143.84;37.53;44910.06;5091044;28;20439;-85
2022/06/22 04:18:52;;;;;;;6.43;2.53;;;;;;;-143.84;37.05;44927.19;5091069;28;20999;-84
2022/06/22 04:21:25;;;;;;;5.17;2.33;;;;;;;-143.84;36.52;44911.97;5091242;28;20466;-85
2022/06/22 04:23:56;;;;;;;4.67;2.40;;;;;;;-143.84;36.28;44891.03;5091183;28;20963;-85
2022/06/22 04:26:27;;;;;;;6.37;2.27;;;;;;;-143.84;35.91;44887.22;5091213;28;20435;-84
2022/06/22 04:29:02;;;;;;;2.33;2.20;;;;;;;-143.84;35.66;44883.41;5091129;28;20432;-85
2022/06/22 04:31:33;;;;;;;15.37;2.13;;;;;;;-143.84;35.62;44910.06;5091108;28;20517;-84
2022/06/22 05:39:02;;;;;;;3.63;2.10;;;;;;;-143.84;35.30;44911.97;5075288;27;1502368;-73
2022/06/22 05:41:31;;;;;;;10.20;1.63;;;;;;;-143.84;34.67;44892.94;5107356;28;20450;-74
2022/06/22 05:44:05;;;;;;;6.47;2.20;;;;;;;-143.84;34.62;44891.03;5107060;28;20442;-74
2022/06/22 05:46:33;;;;;;;2.10;1.90;;;;;;;-143.84;34.20;44881.50;5107219;28;21013;-74
2022/06/22 05:49:01;;;;;;;7.90;2.30;;;;;;;-143.84;34.27;44883.41;5092713;28;20456;-74
2022/06/22 05:51:36;;;;;;;4.67;1.77;;;;;;;-143.84;33.80;44847.22;5086759;28;20439;-74
2022/06/22 05:54:13;;;;;;;4.90;1.80;;;;;;;-143.84;32.50;44891.03;5086972;28;20860;-74
2022/06/22 05:56:45;;;;;;;9.67;1.97;;;;;;;-143.84;32.89;44843.44;5086570;28;20482;-74
2022/06/22 05:59:19;;;;;;;2.77;2.17;;;;;;;-143.84;33.41;44894.84;5086445;28;20475;-74
2022/06/22 06:01:55;;;;;;;6.73;2.10;;;;;;;-143.84;32.89;44862.47;5086430;28;20444;-74
2022/06/22 06:04:29;;;;;;;5.60;1.90;;;;;;;-143.84;33.00;44877.69;5086286;28;20436;-74
2022/06/22 06:07:01;;;;;;;3.70;2.37;;;;;;;-143.84;32.71;44900.53;5086327;28;20444;-74
2022/06/22 06:09:34;;;;;;;5.83;1.97;;;;;;;-143.84;33.14;44851.03;5086536;28;21411;-74
2022/06/22 06:12:05;;;;;;;2.90;1.80;;;;;;;-143.84;33.54;44849.13;5086239;28;20445;-74
2022/06/22 06:14:36;;;;;;;2.60;1.97;;;;;;;-143.84;33.11;44847.22;5086146;28;20929;-74
2022/06/22 06:17:09;;;;;;;2.93;2.23;;;;;;;-143.84;32.20;44828.19;5085903;28;20484;-74
2022/06/22 06:19:44;;;;;;;1.97;1.77;;;;;;;-143.84;31.72;44854.84;5086001;28;20447;-74
2022/06/22 06:22:15;;;;;;;10.97;2.00;;;;;;;-143.84;30.64;44809.16;5085842;28;20431;-74
2022/06/22 06:27:40;;;;;;;3.00;1.70;;;;;;;-143.84;32.37;44839.63;5070792;28;20462;-74
2022/06/22 06:30:15;;;;;;;4.20;1.80;;;;;;;-143.84;31.45;44843.44;5085958;28;20455;-75
2022/06/22 06:32:50;;;;;;;3.77;2.00;;;;;;;-143.84;31.58;44843.44;5067422;28;20452;-74
2022/06/22 06:35:26;;;;;;;12.53;1.70;;;;;;;-143.84;31.61;44837.72;5085653;28;20447;-75
2022/06/22 06:38:03;;;;;;;3.87;1.57;;;;;;;-143.84;31.21;44830.09;5085545;28;20556;-75
2022/06/22 06:40:43;;;;;;;5.63;1.80;;;;;;;-143.84;31.02;44856.75;5085210;28;20443;-75
2022/06/22 06:43:41;;;;;;;1.97;1.50;;;;;;;-143.84;31.80;44875.78;5085110;28;20826;-75
2022/06/22 06:46:16;;;;;;;4.80;1.90;;;;;;;-143.84;31.24;44835.81;5085419;28;20441;-75
2022/06/22 06:48:49;;;;;;;2.97;1.90;;;;;;;-143.84;31.26;44830.09;5081022;28;20449;-75
2022/06/22 06:51:20;;;;;;;6.73;2.03;;;;;;;-143.84;31.66;44852.94;5071705;28;20474;-75
2022/06/22 06:53:54;;;;;;;8.10;1.77;;;;;;;-143.84;31.46;44832.00;5072331;28;20437;-75
2022/06/22 06:56:31;;;;;;;3.33;2.20;;;;;;;-143.84;30.87;44841.53;5071701;28;20432;-74
2022/06/22 06:59:03;;;;;;;2.90;1.83;;;;;;;-143.84;31.49;44822.47;5053537;28;20472;-74
2022/06/22 07:01:35;;;;;;;5.50;2.30;;;;;;;-143.84;31.65;44835.81;5053590;28;20841;-74
2022/06/22 07:04:10;;;;;;;3.30;1.67;;;;;;;-143.84;31.15;44851.03;5071372;28;20456;-74
2022/06/22 07:06:39;;;;;;;4.90;1.90;;;;;;;-143.84;31.39;44828.19;5071588;28;20444;-74
2022/06/22 07:09:16;;;;;;;4.00;2.20;;;;;;;-143.84;32.00;44828.19;5071853;28;20847;-75
2022/06/22 07:11:49;;;;;;;8.20;1.70;;;;;;;-143.84;32.78;44816.78;5053662;28;20455;-74
2022/06/22 07:14:22;;;;;;;3.43;1.60;;;;;;;-143.84;30.96;44837.72;5071722;28;20999;-74
2022/06/22 07:16:53;;;;;;;8.43;1.80;;;;;;;-143.84;31.32;44828.19;5071105;28;20502;-74
2022/06/22 07:19:25;;;;;;;5.43;2.07;;;;;;;-143.84;32.09;44847.22;5069937;28;20530;-74
2022/06/22 07:22:01;;;;;;;5.93;2.20;;;;;;;-143.84;32.12;44824.38;5070316;28;20452;-74
2022/06/22 07:24:37;;;;;;;5.23;1.80;;;;;;;-143.84;31.67;44839.63;5070462;28;20436;-74
2022/06/22 07:27:13;;;;;;;5.03;2.00;;;;;;;-143.84;31.55;44847.22;5070554;28;20441;-74
2022/06/22 07:29:45;;;;;;;7.87;2.40;;;;;;;-143.84;31.84;44856.75;5070887;28;20930;-74
2022/06/22 07:32:21;;;;;;;10.13;1.83;;;;;;;-143.84;31.54;44856.75;5071331;28;20502;-74
2022/06/22 07:34:56;;;;;;;2.60;1.70;;;;;;;-143.84;31.75;44860.56;5071261;28;20459;-74
2022/06/22 07:37:28;;;;;;;9.23;2.17;;;;;;;-143.84;32.30;44873.88;5070710;28;21231;-74
2022/06/22 07:40:01;;;;;;;2.50;1.70;;;;;;;-143.84;32.88;44879.59;5071043;28;20440;-74
2022/06/22 07:42:30;;;;;;;4.03;1.90;;;;;;;-143.84;32.77;44887.22;5071071;28;20814;-74
2022/06/22 07:44:57;;;;;;;2.67;1.90;;;;;;;-143.84;33.27;44879.59;5071129;28;20980;-73
2022/06/22 07:47:33;;;;;;;2.63;1.80;;;;;;;-143.84;32.17;44839.63;5071531;28;20490;-73
2022/06/22 07:50:05;;;;;;;1.77;1.50;;;;;;;-143.84;32.69;44887.22;5071042;28;20506;-73
2022/06/22 07:52:38;;;;;;;3.10;1.50;;;;;;;-143.84;32.48;44894.84;5070532;28;20444;-73
2022/06/22 07:55:20;;;;;;;5.43;1.63;;;;;;;-143.84;32.30;44881.50;5088926;28;20506;-74
2022/06/22 07:58:08;;;;;;;3.17;1.60;;;;;;;-143.84;33.01;44889.13;5090790;28;20487;-74
2022/06/22 08:00:39;;;;;;;4.43;1.50;;;;;;;-143.84;31.56;44887.22;5090343;28;20515;-74
2022/06/22 08:03:18;;;;;;;4.40;1.87;;;;;;;-143.84;32.43;44889.13;5091124;28;20432;-74
2022/06/22 08:05:49;;;;;;;6.50;2.17;;;;;;;-143.84;32.54;44892.94;5090716;28;20951;-74
2022/06/22 08:08:20;;;;;;;2.70;1.87;;;;;;;-143.84;32.42;44868.19;5090361;28;20447;-74
2022/06/22 08:10:55;;;;;;;3.43;1.60;;;;;;;-143.84;31.52;44877.69;5090658;28;20450;-73
2022/06/22 08:13:26;;;;;;;3.27;1.43;;;;;;;-143.84;31.78;44881.50;5090955;28;20439;-74
2022/06/22 08:15:59;;;;;;;3.50;1.97;;;;;;;-143.84;31.81;44885.31;5090755;28;20797;-74
2022/06/22 08:18:28;;;;;;;2.50;1.73;;;;;;;-143.84;31.75;44877.69;5090621;28;20521;-73
2022/06/22 08:20:57;;;;;;;2.30;1.93;;;;;;;-143.84;31.79;44868.19;5090436;28;20448;-74
2022/06/22 08:23:28;;;;;;;7.37;2.57;;;;;;;-143.84;32.52;44866.28;5089552;28;20444;-74
2022/06/22 08:25:59;;;;;;;3.60;1.90;;;;;;;-143.84;32.73;44892.94;5072057;28;20454;-73
2022/06/22 08:28:31;;;;;;;15.10;1.83;;;;;;;-143.84;33.66;44851.03;5089597;28;20447;-74
2022/06/22 08:31:00;;;;;;;6.70;2.67;;;;;;;-143.84;32.71;44879.59;5071509;28;20448;-74
2022/06/22 08:33:35;;;;;;;5.67;2.03;;;;;;;-143.84;31.96;44871.97;5069535;28;20555;-73
2022/06/22 08:36:09;;;;;;;2.70;1.80;;;;;;;-143.84;33.17;44881.50;5069909;28;20436;-74
2022/06/22 08:38:41;;;;;;;3.43;1.77;;;;;;;-143.84;32.59;44868.19;5052543;28;20960;-73
2022/06/22 08:41:21;;;;;;;5.17;1.93;;;;;;;-143.84;33.14;44875.78;5069520;28;20437;-73
2022/06/22 08:43:57;;;;;;;6.27;1.57;;;;;;;-143.84;32.43;44883.41;5069994;28;20447;-73
2022/06/22 08:46:52;;;;;;;5.13;1.90;;;;;;;-143.84;32.50;44898.66;5067043;28;20478;-73
2022/06/22 08:49:36;;;;;;;3.47;1.83;;;;;;;-143.84;32.98;44877.69;5072148;28;20457;-80
2022/06/22 08:52:15;;;;;;;4.77;2.43;;;;;;;-143.84;33.63;44875.78;5075702;28;20456;-80
2022/06/22 08:55:02;;;;;;;8.30;1.80;;;;;;;-143.84;33.17;44900.53;5075351;28;20467;-81
2022/06/22 08:57:42;;;;;;;5.57;1.90;;;;;;;-143.84;33.48;44900.53;5071946;28;20444;-81
2022/06/22 09:00:34;;;;;;;5.83;1.83;;;;;;;-143.84;34.10;44873.88;5071245;28;20436;-80
2022/06/22 09:03:34;;;;;;;2.40;1.60;;;;;;;-143.84;32.38;44900.53;5074631;28;20504;-80
2022/06/22 09:06:35;;;;;;;4.30;2.10;;;;;;;-143.84;33.07;44906.25;5075430;28;20433;-81
2022/06/22 09:09:29;;;;;;;9.53;1.93;;;;;;;-143.84;34.34;44908.16;5073754;28;20444;-80
2022/06/22 09:12:08;;;;;;;5.73;2.33;;;;;;;-143.84;35.73;44877.69;5071949;28;20445;-81
2022/06/22 09:15:03;;;;;;;4.67;2.00;;;;;;;-143.84;34.59;44875.78;5065306;28;20437;-74
2022/06/22 09:17:55;;;;;;;2.50;1.63;;;;;;;-143.84;35.96;44906.25;5068222;28;20455;-73
2022/06/22 09:20:51;;;;;;;3.50;2.13;;;;;;;-143.84;35.65;44894.84;5073187;28;20464;-74
2022/06/22 09:23:29;;;;;;;2.93;1.70;;;;;;;-143.84;36.52;44875.78;5068728;28;21297;-74
2022/06/22 09:26:09;;;;;;;6.60;1.87;;;;;;;-143.84;36.74;44894.84;5064368;28;20490;-74
2022/06/22 09:28:50;;;;;;;4.37;1.93;;;;;;;-143.84;37.14;44896.75;5073884;28;20879;-80
2022/06/22 09:31:44;;;;;;;3.57;1.60;;;;;;;-143.84;36.47;44915.78;5075903;28;20443;-80
2022/06/22 09:34:40;;;;;;;4.60;2.00;;;;;;;-143.84;35.32;44894.84;5071217;28;20445;-81
2022/06/22 09:37:40;;;;;;;5.23;2.20;;;;;;;-143.84;36.84;44925.31;5073190;28;20464;-79
2022/06/22 09:40:45;;;;;;;2.07;1.80;;;;;;;-143.84;34.51;44927.19;5057270;28;20484;-80
2022/06/22 09:43:42;;;;;;;3.20;2.30;;;;;;;-143.84;37.90;44896.75;5070954;28;20474;-80
2022/06/22 09:46:36;;;;;;;1.93;1.83;;;;;;;-143.84;36.39;44934.81;5070989;28;20934;-80
2022/06/22 09:49:35;;;;;;;4.37;2.83;;;;;;;-143.84;37.30;44896.75;5070704;28;20540;-80
2022/06/22 09:52:21;;;;;;;2.00;1.80;;;;;;;-143.84;37.18;44898.66;5074236;28;20931;-80
2022/06/22 09:58:22;;;;;;;3.00;2.53;;;;;;;-143.84;37.86;44898.66;5085276;28;20419;-80
2022/06/22 10:00:56;;;;;;;1.97;1.70;;;;;;;-143.84;36.98;44913.88;5080369;28;20432;-80
2022/06/22 10:03:57;;;;;;;4.53;2.00;;;;;;;-143.84;38.01;44948.16;5091639;28;20837;-80
2022/06/22 10:06:54;;;;;;;6.50;2.60;;;;;;;-143.84;39.38;44908.16;5083013;28;21160;-80
2022/06/22 10:09:38;;;;;;;2.30;2.20;;;;;;;-143.84;39.49;44913.88;5078720;28;20789;-80
2022/06/22 10:12:19;;;;;;;5.03;2.40;;;;;;;-143.84;39.29;44906.25;5073599;28;20441;-80
2022/06/22 10:15:11;;;;;;;4.43;2.57;;;;;;;-143.84;40.23;44951.97;5071578;28;20445;-80
2022/06/22 10:17:55;;;;;;;5.47;2.83;;;;;;;-143.84;40.43;44957.66;5081774;28;20452;-80
2022/06/22 10:20:39;;;;;;;3.07;2.20;;;;;;;-143.84;40.68;44934.81;5085980;28;20435;-80
2022/06/22 10:23:18;;;;;;;11.13;2.67;;;;;;;-143.84;39.69;44938.63;5074591;28;20432;-80
2022/06/22 10:26:10;;;;;;;4.83;2.70;;;;;;;-143.84;42.06;44917.69;5074486;28;20444;-73
2022/06/22 10:29:12;;;;;;;2.60;2.47;;;;;;;-143.84;41.94;44908.16;5075616;28;20428;-80
2022/06/22 10:31:52;;;;;;;4.63;2.50;;;;;;;-143.84;41.23;44942.44;5074870;28;20956;-80
2022/06/22 10:34:47;;;;;;;5.33;2.37;;;;;;;-143.84;42.15;44927.19;5075051;28;20481;-80
2022/06/22 10:37:29;;;;;;;9.10;2.43;;;;;;;-143.84;43.64;44932.91;5075094;28;20463;-79
2022/06/22 10:46:13;;;;;;;7.10;2.90;;;;;;;-143.84;43.87;44915.78;5074617;28;20423;-80
2022/06/22 10:49:12;;;;;;;14.10;2.90;;;;;;;-143.84;43.71;44948.16;5073146;28;20451;-74
2022/06/22 10:51:59;;;;;;;3.87;2.80;;;;;;;-143.84;44.78;44927.19;5071847;28;20448;-73
2022/06/22 10:54:45;;;;;;;3.57;3.20;;;;;;;-143.84;43.87;44942.44;5073806;28;20454;-73
2022/06/22 10:57:25;;;;;;;5.47;2.23;;;;;;;-143.84;46.26;44946.25;5071404;28;20447;-74
2022/06/22 11:00:14;;;;;;;3.63;3.07;;;;;;;-143.84;48.67;44942.44;5070353;28;21174;-74
2022/06/22 11:03:26;;;;;;;7.23;3.03;;;;;;;-143.84;48.11;44927.19;5073910;28;20487;-74
2022/06/22 11:06:16;;;;;;;4.00;2.47;;;;;;;-143.84;47.17;44961.47;5070231;28;20925;-74
2022/06/22 11:09:13;;;;;;;3.30;2.80;;;;;;;-143.84;48.62;44942.44;5089595;28;20440;-74
2022/06/22 11:12:00;;;;;;;8.50;2.70;;;;;;;-143.84;48.53;44946.25;5092268;28;20428;-74
2022/06/22 11:15:00;;;;;;;3.30;2.43;;;;;;;-143.84;50.22;44948.16;5092139;28;20444;-74
2022/06/22 11:17:46;;;;;;;3.17;2.73;;;;;;;-143.84;50.25;44936.72;5092247;28;20432;-74
2022/06/22 11:20:46;;;;;;;3.70;2.77;;;;;;;-143.84;50.36;44955.75;5091738;28;20479;-73
2022/06/22 11:23:18;;;;;;;6.80;2.73;;;;;;;-143.84;50.83;44946.25;5091885;28;20436;-74
2022/06/22 11:32:01;;;;;;;6.03;2.60;;;;;;;-143.84;50.33;44944.34;5092077;28;20544;-73
2022/06/22 11:34:59;;;;;;;4.23;2.80;;;;;;;-143.84;49.82;44934.81;5075434;28;20522;-75
2022/06/22 11:37:46;;;;;;;8.50;2.93;;;;;;;-143.84;51.29;44936.72;5071160;28;20597;-74
2022/06/22 11:40:56;;;;;;;5.53;2.80;;;;;;;-143.84;51.89;44938.63;5074285;28;20464;-74
2022/06/22 11:43:46;;;;;;;8.00;2.90;;;;;;;-143.84;51.00;44969.09;5033000;28;20509;-73
2022/06/22 11:46:19;;;;;;;6.33;3.10;;;;;;;-143.84;51.94;44936.72;5068205;28;20444;-74
2022/06/22 11:49:18;;;;;;;3.30;3.00;;;;;;;-143.84;52.95;44953.88;5066783;28;20941;-75
2022/06/22 11:52:05;;;;;;;5.17;3.23;;;;;;;-143.84;53.02;44934.81;5059111;28;21337;-75
2022/06/22 11:54:52;;;;;;;5.33;3.63;;;;;;;-143.84;53.57;44934.81;5071330;28;20445;-75
2022/06/22 11:57:53;;;;;;;5.63;3.33;;;;;;;-143.84;53.35;44963.38;5075185;28;20436;-75
2022/06/22 12:00:34;;;;;;;6.50;2.47;;;;;;;-143.84;54.84;44955.75;5077072;28;20874;-75
2022/06/22 12:03:39;;;;;;;9.53;2.90;;;;;;;-143.84;54.78;44967.19;5080382;28;20514;-75
2022/06/22 12:06:20;;;;;;;9.50;3.37;;;;;;;-143.84;54.63;44957.66;5079371;28;20453;-75
2022/06/22 12:09:08;;;;;;;13.27;2.80;;;;;;;-143.84;55.20;44953.88;5080862;28;20493;-75
2022/06/22 12:11:47;;;;;;;4.87;2.87;;;;;;;-143.84;54.24;44940.53;5077657;28;20453;-75
2022/06/22 12:17:36;;;;;;;3.80;3.03;;;;;;;-143.84;56.59;44953.88;5080558;28;20427;-74
2022/06/22 12:20:11;;;;;;;3.93;2.80;;;;;;;-143.84;55.83;44925.31;5079196;28;20989;-75
2022/06/22 12:22:52;;;;;;;3.43;3.13;;;;;;;-143.84;56.55;44953.88;5072434;28;20864;-75
2022/06/22 12:25:50;;;;;;;4.33;2.90;;;;;;;-143.84;56.42;44978.63;5077430;28;20444;-75
2022/06/22 12:28:34;;;;;;;12.60;3.60;;;;;;;-143.84;59.24;44963.38;5074656;28;20444;-75
2022/06/22 12:31:11;;;;;;;9.70;2.80;;;;;;;-143.84;57.71;44969.09;5079886;28;20452;-75
2022/06/22 12:33:43;;;;;;;3.73;2.70;;;;;;;-143.84;58.25;44961.47;5076057;28;20497;-75
2022/06/22 12:36:17;;;;;;;6.97;3.03;;;;;;;-143.84;56.60;44986.22;5080351;28;20444;-75
2022/06/22 12:38:48;;;;;;;9.23;2.90;;;;;;;-143.84;57.88;44976.72;5078554;28;20985;-75
2022/06/22 12:41:32;;;;;;;3.37;2.70;;;;;;;-143.84;58.30;44986.22;5079999;28;20459;-74
2022/06/22 12:44:33;;;;;;;5.33;3.03;;;;;;;-143.84;58.86;44940.53;5077299;28;21066;-74
2022/06/22 12:47:15;;;;;;;3.23;2.93;;;;;;;-143.84;57.30;44953.88;5077995;28;20455;-74
2022/06/22 12:50:01;;;;;;;3.90;2.73;;;;;;;-143.84;58.16;44976.72;5083486;28;20467;-74
2022/06/22 12:52:34;;;;;;;9.43;2.97;;;;;;;-143.84;57.42;44957.66;5069872;28;20449;-74
2022/06/22 12:55:05;;;;;;;3.20;2.90;;;;;;;-143.84;56.98;44950.06;5082141;28;21318;-75
2022/06/22 12:57:41;;;;;;;5.50;3.03;;;;;;;-143.84;57.73;44971.00;5086185;28;20467;-74
2022/06/22 13:00:12;;;;;;;5.00;2.70;;;;;;;-143.84;58.12;44955.75;5083079;28;21152;-75
2022/06/22 13:02:41;;;;;;;6.77;3.10;;;;;;;-143.84;59.61;44948.16;5083737;28;20942;-74
2022/06/22 13:05:11;;;;;;;4.10;2.80;;;;;;;-143.84;59.98;44927.19;5085896;28;20471;-74
2022/06/22 13:07:43;;;;;;;5.53;2.57;;;;;;;-143.84;60.04;44967.19;5069437;28;20427;-74
2022/06/22 13:10:16;;;;;;;5.87;2.70;;;;;;;-143.84;60.78;44950.06;5070721;28;21274;-74
2022/06/22 13:12:50;;;;;;;4.13;3.10;;;;;;;-143.84;59.91;44951.97;5069543;28;20457;-74
2022/06/22 13:15:23;;;;;;;11.93;3.10;;;;;;;-143.84;60.22;44963.38;5081442;28;21001;-74
2022/06/22 13:18:01;;;;;;;2.43;2.23;;;;;;;-143.84;60.90;44963.38;5068785;28;20447;-74
2022/06/22 13:20:46;;;;;;;4.83;3.37;;;;;;;-143.84;60.98;44982.41;5081186;28;20472;-74
2022/06/22 13:23:27;;;;;;;8.70;2.90;;;;;;;-143.84;60.58;44972.91;5081315;28;20816;-74
2022/06/22 13:26:04;;;;;;;6.93;3.07;;;;;;;-143.84;61.38;44961.47;5081688;28;20452;-74
2022/06/22 13:28:41;;;;;;;4.60;3.57;;;;;;;-143.84;61.46;44959.56;5080939;28;20439;-74
2022/06/22 13:31:16;;;;;;;13.53;2.90;;;;;;;-143.84;60.94;44984.31;5069877;28;20466;-74
2022/06/22 13:33:48;;;;;;;6.93;3.10;;;;;;;-143.84;60.59;44976.72;5085862;28;20470;-74
2022/06/22 13:36:26;;;;;;;19.70;3.40;;;;;;;-143.84;61.30;44980.53;5089257;28;20436;-74
2022/06/22 13:39:06;;;;;;;5.07;2.70;;;;;;;-143.84;62.75;44967.19;5088901;28;20476;-74
2022/06/22 13:41:55;;;;;;;7.37;2.53;;;;;;;-143.84;62.80;44980.53;5088667;28;20432;-74
2022/06/22 13:44:38;;;;;;;8.70;3.17;;;;;;;-143.84;63.08;44955.75;5088978;28;20454;-74
2022/06/22 13:47:32;;;;;;;7.23;3.37;;;;;;;-143.84;64.64;44999.56;5088804;28;21242;-74